sensor_id;sensor_type;location;lat;lon;timestamp;pressure;altitude;pressure_sealevel;temperature;humidity
49835;BME280;35729;52.090;13.162;2022-07-29T00:00:00;101301.25;;;16.28;52.38
49835;BME280;35729;52.090;13.162;2022-07-29T00:02:29;101304.84;;;16.26;52.46
49835;BME280;35729;52.090;13.162;2022-07-29T00:05:00;101302.34;;;16.23;52.65
49835;BME280;35729;52.090;13.162;2022-07-29T00:07:29;101304.22;;;16.19;52.57
49835;BME280;35729;52.090;13.162;2022-07-29T00:09:57;101313.09;;;16.18;52.90
49835;BME280;35729;52.090;13.162;2022-07-29T00:12:26;101328.13;;;16.18;52.62
49835;BME280;35729;52.090;13.162;2022-07-29T00:14:54;101318.50;;;16.15;52.85
49835;BME280;35729;52.090;13.162;2022-07-29T00:17:23;101308.22;;;16.06;52.74
49835;BME280;35729;52.090;13.162;2022-07-29T00:19:52;101306.47;;;16.06;53.06
49835;BME280;35729;52.090;13.162;2022-07-29T00:22:23;101305.66;;;16.04;53.28
49835;BME280;35729;52.090;13.162;2022-07-29T00:24:52;101295.19;;;16.01;53.45
49835;BME280;35729;52.090;13.162;2022-07-29T00:27:20;101293.53;;;15.97;53.38
49835;BME280;35729;52.090;13.162;2022-07-29T00:29:49;101284.84;;;15.93;53.86
49835;BME280;35729;52.090;13.162;2022-07-29T00:32:17;101282.31;;;15.90;53.81
49835;BME280;35729;52.090;13.162;2022-07-29T00:34:45;101277.16;;;15.87;53.94
49835;BME280;35729;52.090;13.162;2022-07-29T00:37:29;101274.66;;;15.83;54.04
49835;BME280;35729;52.090;13.162;2022-07-29T00:39:57;101273.00;;;15.78;53.95
49835;BME280;35729;52.090;13.162;2022-07-29T00:42:26;101276.66;;;15.74;54.37
49835;BME280;35729;52.090;13.162;2022-07-29T00:44:54;101277.69;;;15.70;54.58
49835;BME280;35729;52.090;13.162;2022-07-29T00:47:23;101275.16;;;15.67;54.60
49835;BME280;35729;52.090;13.162;2022-07-29T00:49:51;101274.34;;;15.65;54.76
49835;BME280;35729;52.090;13.162;2022-07-29T00:52:20;101269.25;;;15.59;54.64
49835;BME280;35729;52.090;13.162;2022-07-29T00:54:51;101270.16;;;15.58;54.73
49835;BME280;35729;52.090;13.162;2022-07-29T00:57:20;101267.66;;;15.55;55.22
49835;BME280;35729;52.090;13.162;2022-07-29T00:59:49;101263.38;;;15.51;55.27
49835;BME280;35729;52.090;13.162;2022-07-29T01:02:17;101265.22;;;15.48;55.20
49835;BME280;35729;52.090;13.162;2022-07-29T01:04:46;101255.59;;;15.46;55.41
49835;BME280;35729;52.090;13.162;2022-07-29T01:07:14;101255.69;;;15.43;55.57
49835;BME280;35729;52.090;13.162;2022-07-29T01:09:44;101254.97;;;15.38;55.55
49835;BME280;35729;52.090;13.162;2022-07-29T01:12:18;101247.22;;;15.33;55.69
49835;BME280;35729;52.090;13.162;2022-07-29T01:14:48;101241.06;;;15.32;55.79
49835;BME280;35729;52.090;13.162;2022-07-29T01:17:21;101238.47;;;15.31;55.98
49835;BME280;35729;52.090;13.162;2022-07-29T01:19:58;101226.28;;;15.27;56.35
49835;BME280;35729;52.090;13.162;2022-07-29T01:22:36;101233.38;;;15.25;55.99
49835;BME280;35729;52.090;13.162;2022-07-29T01:25:25;101219.47;;;15.20;56.75
49835;BME280;35729;52.090;13.162;2022-07-29T01:28:29;101215.16;;;15.17;56.42
49835;BME280;35729;52.090;13.162;2022-07-29T01:31:00;101219.66;;;15.13;56.37
49835;BME280;35729;52.090;13.162;2022-07-29T01:33:32;101217.13;;;15.10;56.64
49835;BME280;35729;52.090;13.162;2022-07-29T01:36:22;101219.88;;;15.07;56.98
49835;BME280;35729;52.090;13.162;2022-07-29T01:38:58;101217.28;;;15.06;56.85
49835;BME280;35729;52.090;13.162;2022-07-29T01:41:29;101214.69;;;15.04;56.93
49835;BME280;35729;52.090;13.162;2022-07-29T01:44:11;101216.56;;;15.01;57.17
49835;BME280;35729;52.090;13.162;2022-07-29T01:46:46;101206.13;;;14.97;57.19
49835;BME280;35729;52.090;13.162;2022-07-29T01:49:18;101209.66;;;14.96;57.59
49835;BME280;35729;52.090;13.162;2022-07-29T01:51:51;101204.47;;;14.93;57.43
49835;BME280;35729;52.090;13.162;2022-07-29T01:54:26;101210.63;;;14.94;57.72
49835;BME280;35729;52.090;13.162;2022-07-29T01:56:58;101205.50;;;14.89;57.59
49835;BME280;35729;52.090;13.162;2022-07-29T01:59:33;101215.19;;;14.89;57.72
49835;BME280;35729;52.090;13.162;2022-07-29T02:02:02;101214.38;;;14.87;58.08
49835;BME280;35729;52.090;13.162;2022-07-29T02:04:32;101217.06;;;14.85;58.02
49835;BME280;35729;52.090;13.162;2022-07-29T02:07:03;101212.69;;;14.84;58.13
49835;BME280;35729;52.090;13.162;2022-07-29T02:09:35;101214.47;;;14.83;58.17
49835;BME280;35729;52.090;13.162;2022-07-29T02:12:06;101211.94;;;14.80;58.17
49835;BME280;35729;52.090;13.162;2022-07-29T02:14:41;101212.84;;;14.79;58.10
49835;BME280;35729;52.090;13.162;2022-07-29T02:17:11;101211.16;;;14.77;58.28
49835;BME280;35729;52.090;13.162;2022-07-29T02:19:42;101211.09;;;14.78;58.33
49835;BME280;35729;52.090;13.162;2022-07-29T02:22:12;101208.50;;;14.77;58.39
49835;BME280;35729;52.090;13.162;2022-07-29T02:24:42;101205.94;;;14.75;58.61
49835;BME280;35729;52.090;13.162;2022-07-29T02:27:12;101199.88;;;14.72;58.52
49835;BME280;35729;52.090;13.162;2022-07-29T02:29:45;101193.69;;;14.73;58.70
49835;BME280;35729;52.090;13.162;2022-07-29T02:32:15;101196.41;;;14.70;58.77
49835;BME280;35729;52.090;13.162;2022-07-29T02:34:44;101196.38;;;14.71;58.67
49835;BME280;35729;52.090;13.162;2022-07-29T02:37:16;101191.13;;;14.70;58.98
49835;BME280;35729;52.090;13.162;2022-07-29T02:39:48;101187.69;;;14.68;58.94
49835;BME280;35729;52.090;13.162;2022-07-29T02:42:17;101190.38;;;14.66;59.16
49835;BME280;35729;52.090;13.162;2022-07-29T02:44:49;101185.16;;;14.63;59.32
49835;BME280;35729;52.090;13.162;2022-07-29T02:47:21;101186.06;;;14.62;59.23
49835;BME280;35729;52.090;13.162;2022-07-29T02:49:55;101182.63;;;14.60;59.35
49835;BME280;35729;52.090;13.162;2022-07-29T02:52:31;101183.59;;;14.57;59.35
49835;BME280;35729;52.090;13.162;2022-07-29T02:55:11;101185.47;;;14.54;59.81
49835;BME280;35729;52.090;13.162;2022-07-29T02:57:43;101189.00;;;14.53;59.71
49835;BME280;35729;52.090;13.162;2022-07-29T03:00:16;101188.22;;;14.49;59.89
49835;BME280;35729;52.090;13.162;2022-07-29T03:02:48;101186.50;;;14.48;60.12
49835;BME280;35729;52.090;13.162;2022-07-29T03:05:20;101183.09;;;14.44;60.03
49835;BME280;35729;52.090;13.162;2022-07-29T03:07:51;101190.25;;;14.41;60.37
49835;BME280;35729;52.090;13.162;2022-07-29T03:10:23;101189.44;;;14.39;60.18
49835;BME280;35729;52.090;13.162;2022-07-29T03:12:54;101194.81;;;14.36;60.52
49835;BME280;35729;52.090;13.162;2022-07-29T03:15:26;101181.69;;;14.32;60.69
49835;BME280;35729;52.090;13.162;2022-07-29T03:17:55;101180.06;;;14.28;60.67
49835;BME280;35729;52.090;13.162;2022-07-29T03:20:25;101187.09;;;14.28;60.81
49835;BME280;35729;52.090;13.162;2022-07-29T03:22:53;101193.31;;;14.27;60.94
49835;BME280;35729;52.090;13.162;2022-07-29T03:25:22;101196.84;;;14.26;61.13
49835;BME280;35729;52.090;13.162;2022-07-29T03:27:52;101190.69;;;14.25;61.00
49835;BME280;35729;52.090;13.162;2022-07-29T03:30:30;101187.22;;;14.25;61.43
49835;BME280;35729;52.090;13.162;2022-07-29T03:32:58;101182.84;;;14.24;61.30
49835;BME280;35729;52.090;13.162;2022-07-29T03:35:27;101181.06;;;14.24;61.30
49835;BME280;35729;52.090;13.162;2022-07-29T03:37:56;101184.56;;;14.25;61.30
49835;BME280;35729;52.090;13.162;2022-07-29T03:40:35;101189.84;;;14.25;61.37
49835;BME280;35729;52.090;13.162;2022-07-29T03:43:07;101180.13;;;14.25;61.24
49835;BME280;35729;52.090;13.162;2022-07-29T03:45:42;101177.50;;;14.25;61.52
49835;BME280;35729;52.090;13.162;2022-07-29T03:48:15;101170.47;;;14.26;61.72
49835;BME280;35729;52.090;13.162;2022-07-29T03:50:44;101172.19;;;14.27;61.45
49835;BME280;35729;52.090;13.162;2022-07-29T03:53:13;101169.50;;;14.28;61.33
49835;BME280;35729;52.090;13.162;2022-07-29T03:55:44;101170.38;;;14.29;61.47
49835;BME280;35729;52.090;13.162;2022-07-29T03:58:16;101176.53;;;14.29;61.82
49835;BME280;35729;52.090;13.162;2022-07-29T04:00:49;101173.88;;;14.29;61.79
49835;BME280;35729;52.090;13.162;2022-07-29T04:03:18;101173.81;;;14.31;61.64
49835;BME280;35729;52.090;13.162;2022-07-29T04:05:58;101174.72;;;14.30;61.64
49835;BME280;35729;52.090;13.162;2022-07-29T04:08:27;101175.56;;;14.32;61.38
49835;BME280;35729;52.090;13.162;2022-07-29T04:10:55;101170.28;;;14.32;61.63
49835;BME280;35729;52.090;13.162;2022-07-29T04:13:24;101179.00;;;14.34;61.65
49835;BME280;35729;52.090;13.162;2022-07-29T04:15:55;101174.59;;;14.34;61.95
49835;BME280;35729;52.090;13.162;2022-07-29T04:18:24;101178.94;;;14.37;61.68
49835;BME280;35729;52.090;13.162;2022-07-29T04:20:52;101171.84;;;14.38;61.67
49835;BME280;35729;52.090;13.162;2022-07-29T04:23:21;101184.19;;;14.37;61.59
49835;BME280;35729;52.090;13.162;2022-07-29T04:25:49;101185.06;;;14.38;61.79
49835;BME280;35729;52.090;13.162;2022-07-29T04:28:18;101188.59;;;14.37;61.82
49835;BME280;35729;52.090;13.162;2022-07-29T04:30:46;101191.22;;;14.38;61.74
49835;BME280;35729;52.090;13.162;2022-07-29T04:33:17;101198.25;;;14.38;61.86
49835;BME280;35729;52.090;13.162;2022-07-29T04:35:46;101191.22;;;14.38;61.90
49835;BME280;35729;52.090;13.162;2022-07-29T04:38:14;101197.28;;;14.40;61.94
49835;BME280;35729;52.090;13.162;2022-07-29T04:40:43;101193.81;;;14.40;62.07
49835;BME280;35729;52.090;13.162;2022-07-29T04:43:11;101197.22;;;14.43;61.77
49835;BME280;35729;52.090;13.162;2022-07-29T04:45:40;101192.78;;;14.44;61.76
49835;BME280;35729;52.090;13.162;2022-07-29T04:48:08;101189.28;;;14.43;61.85
49835;BME280;35729;52.090;13.162;2022-07-29T04:50:40;101191.81;;;14.46;62.15
49835;BME280;35729;52.090;13.162;2022-07-29T04:53:09;101182.19;;;14.45;61.94
49835;BME280;35729;52.090;13.162;2022-07-29T04:55:38;101185.66;;;14.47;62.04
49835;BME280;35729;52.090;13.162;2022-07-29T04:58:06;101183.84;;;14.49;61.90
49835;BME280;35729;52.090;13.162;2022-07-29T05:00:35;101190.75;;;14.54;62.12
49835;BME280;35729;52.090;13.162;2022-07-29T05:03:04;101182.81;;;14.54;61.86
49835;BME280;35729;52.090;13.162;2022-07-29T05:05:32;101193.13;;;14.61;62.14
49835;BME280;35729;52.090;13.162;2022-07-29T05:08:04;101187.78;;;14.64;62.05
49835;BME280;35729;52.090;13.162;2022-07-29T05:10:33;101185.97;;;14.66;61.85
49835;BME280;35729;52.090;13.162;2022-07-29T05:13:04;101188.47;;;14.71;61.98
49835;BME280;35729;52.090;13.162;2022-07-29T05:15:33;101183.06;;;14.74;61.96
49835;BME280;35729;52.090;13.162;2022-07-29T05:18:02;101188.09;;;14.82;61.78
49835;BME280;35729;52.090;13.162;2022-07-29T05:20:30;101185.31;;;14.87;61.99
49835;BME280;35729;52.090;13.162;2022-07-29T05:23:03;101181.72;;;14.89;61.80
49835;BME280;35729;52.090;13.162;2022-07-29T05:25:31;101178.00;;;14.95;61.78
49835;BME280;35729;52.090;13.162;2022-07-29T05:28:00;101191.94;;;15.00;61.75
49835;BME280;35729;52.090;13.162;2022-07-29T05:30:29;101183.84;;;15.05;61.53
49835;BME280;35729;52.090;13.162;2022-07-29T05:32:57;101178.41;;;15.09;61.56
49835;BME280;35729;52.090;13.162;2022-07-29T05:35:26;101184.41;;;15.14;61.26
49835;BME280;35729;52.090;13.162;2022-07-29T05:37:54;101181.56;;;15.21;61.18
49835;BME280;35729;52.090;13.162;2022-07-29T05:40:25;101186.56;;;15.28;61.03
49835;BME280;35729;52.090;13.162;2022-07-29T05:42:54;101181.06;;;15.35;61.05
49835;BME280;35729;52.090;13.162;2022-07-29T05:45:22;101180.81;;;15.42;60.83
49835;BME280;35729;52.090;13.162;2022-07-29T05:47:51;101174.41;;;15.50;60.84
49835;BME280;35729;52.090;13.162;2022-07-29T05:50:20;101171.53;;;15.56;60.67
49835;BME280;35729;52.090;13.162;2022-07-29T05:52:48;101173.06;;;15.61;60.41
49835;BME280;35729;52.090;13.162;2022-07-29T05:55:17;101175.56;;;15.66;60.58
49835;BME280;35729;52.090;13.162;2022-07-29T05:57:48;101177.19;;;15.70;60.29
49835;BME280;35729;52.090;13.162;2022-07-29T06:00:17;101181.44;;;15.74;59.99
49835;BME280;35729;52.090;13.162;2022-07-29T06:02:45;101183.16;;;15.75;60.17
49835;BME280;35729;52.090;13.162;2022-07-29T06:05:14;101189.28;;;15.77;60.34
49835;BME280;35729;52.090;13.162;2022-07-29T06:07:43;101177.81;;;15.77;60.30
49835;BME280;35729;52.090;13.162;2022-07-29T06:10:11;101186.47;;;15.82;60.21
49835;BME280;35729;52.090;13.162;2022-07-29T06:12:40;101185.47;;;15.86;60.22
49835;BME280;35729;52.090;13.162;2022-07-29T06:15:11;101182.53;;;15.94;60.11
49835;BME280;35729;52.090;13.162;2022-07-29T06:17:41;101185.78;;;16.01;60.20
49835;BME280;35729;52.090;13.162;2022-07-29T06:20:10;101188.16;;;16.08;60.32
49835;BME280;35729;52.090;13.162;2022-07-29T06:22:38;101191.44;;;16.15;59.91
49835;BME280;35729;52.090;13.162;2022-07-29T06:25:08;101182.38;;;16.21;59.62
49835;BME280;35729;52.090;13.162;2022-07-29T06:27:37;101182.16;;;16.27;59.78
49835;BME280;35729;52.090;13.162;2022-07-29T06:30:06;101180.25;;;16.31;59.49
49835;BME280;35729;52.090;13.162;2022-07-29T06:32:38;101183.53;;;16.37;59.51
49835;BME280;35729;52.090;13.162;2022-07-29T06:35:07;101179.78;;;16.43;59.36
49835;BME280;35729;52.090;13.162;2022-07-29T06:37:35;101186.69;;;16.47;59.48
49835;BME280;35729;52.090;13.162;2022-07-29T06:40:05;101176.03;;;16.49;59.40
49835;BME280;35729;52.090;13.162;2022-07-29T06:42:46;101179.28;;;16.55;59.49
49835;BME280;35729;52.090;13.162;2022-07-29T06:45:14;101179.00;;;16.63;59.25
49835;BME280;35729;52.090;13.162;2022-07-29T06:47:45;101181.38;;;16.69;59.13
49835;BME280;35729;52.090;13.162;2022-07-29T06:50:15;101188.16;;;16.76;59.10
49835;BME280;35729;52.090;13.162;2022-07-29T06:52:43;101189.72;;;16.82;59.13
49835;BME280;35729;52.090;13.162;2022-07-29T06:55:12;101189.50;;;16.87;58.75
49835;BME280;35729;52.090;13.162;2022-07-29T06:57:40;101191.94;;;16.93;58.59
49835;BME280;35729;52.090;13.162;2022-07-29T07:00:10;101187.31;;;16.98;58.34
49835;BME280;35729;52.090;13.162;2022-07-29T07:02:39;101187.19;;;17.01;58.30
49835;BME280;35729;52.090;13.162;2022-07-29T07:05:10;101183.63;;;17.02;58.01
49835;BME280;35729;52.090;13.162;2022-07-29T07:07:38;101181.75;;;17.04;58.09
49835;BME280;35729;52.090;13.162;2022-07-29T07:10:08;101190.50;;;17.06;58.06
49835;BME280;35729;52.090;13.162;2022-07-29T07:12:36;101183.34;;;17.08;58.21
49835;BME280;35729;52.090;13.162;2022-07-29T07:15:06;101183.97;;;17.15;58.01
49835;BME280;35729;52.090;13.162;2022-07-29T07:17:35;101184.75;;;17.17;58.02
49835;BME280;35729;52.090;13.162;2022-07-29T07:20:05;101194.06;;;17.28;57.50
49835;BME280;35729;52.090;13.162;2022-07-29T07:22:36;101192.84;;;17.35;57.49
49835;BME280;35729;52.090;13.162;2022-07-29T07:25:06;101190.81;;;17.41;57.31
49835;BME280;35729;52.090;13.162;2022-07-29T07:27:35;101193.03;;;17.51;57.23
49835;BME280;35729;52.090;13.162;2022-07-29T07:30:05;101191.72;;;17.61;56.94
49835;BME280;35729;52.090;13.162;2022-07-29T07:32:34;101181.56;;;17.71;56.57
49835;BME280;35729;52.090;13.162;2022-07-29T07:35:04;101173.09;;;17.82;56.45
49835;BME280;35729;52.090;13.162;2022-07-29T07:37:33;101170.03;;;17.91;56.27
49835;BME280;35729;52.090;13.162;2022-07-29T07:40:05;101173.09;;;18.02;55.81
49835;BME280;35729;52.090;13.162;2022-07-29T07:42:34;101169.72;;;18.18;55.36
49835;BME280;35729;52.090;13.162;2022-07-29T07:45:03;101170.72;;;18.34;55.32
49835;BME280;35729;52.090;13.162;2022-07-29T07:47:32;101167.19;;;18.53;54.72
49835;BME280;35729;52.090;13.162;2022-07-29T07:50:00;101166.25;;;18.71;54.13
49835;BME280;35729;52.090;13.162;2022-07-29T07:52:29;101159.94;;;18.93;53.60
49835;BME280;35729;52.090;13.162;2022-07-29T07:54:57;101161.59;;;19.13;52.86
49835;BME280;35729;52.090;13.162;2022-07-29T07:57:29;101159.06;;;19.28;52.31
49835;BME280;35729;52.090;13.162;2022-07-29T07:59:57;101166.84;;;19.48;52.39
49835;BME280;35729;52.090;13.162;2022-07-29T08:02:26;101164.41;;;19.61;51.74
49835;BME280;35729;52.090;13.162;2022-07-29T08:04:54;101160.31;;;19.72;51.55
49835;BME280;35729;52.090;13.162;2022-07-29T08:07:23;101154.34;;;19.84;50.90
49835;BME280;35729;52.090;13.162;2022-07-29T08:09:51;101148.53;;;19.93;51.10
49835;BME280;35729;52.090;13.162;2022-07-29T08:12:20;101155.16;;;20.02;50.42
49835;BME280;35729;52.090;13.162;2022-07-29T08:14:51;101144.09;;;20.10;50.38
49835;BME280;35729;52.090;13.162;2022-07-29T08:17:19;101152.50;;;20.18;50.12
49835;BME280;35729;52.090;13.162;2022-07-29T08:19:48;101142.44;;;20.23;49.65
49835;BME280;35729;52.090;13.162;2022-07-29T08:22:16;101153.72;;;20.28;49.92
49835;BME280;35729;52.090;13.162;2022-07-29T08:24:45;101147.09;;;20.35;49.77
49835;BME280;35729;52.090;13.162;2022-07-29T08:27:18;101150.19;;;20.44;49.66
49835;BME280;35729;52.090;13.162;2022-07-29T08:29:47;101151.56;;;20.51;49.41
49835;BME280;35729;52.090;13.162;2022-07-29T08:32:18;101152.91;;;20.58;49.38
49835;BME280;35729;52.090;13.162;2022-07-29T08:34:47;101153.34;;;20.66;49.21
49835;BME280;35729;52.090;13.162;2022-07-29T08:37:15;101144.94;;;20.74;48.82
49835;BME280;35729;52.090;13.162;2022-07-29T08:39:44;101146.28;;;20.81;48.77
49835;BME280;35729;52.090;13.162;2022-07-29T08:42:12;101152.13;;;20.88;48.33
49835;BME280;35729;52.090;13.162;2022-07-29T08:44:42;101146.44;;;20.94;47.64
49835;BME280;35729;52.090;13.162;2022-07-29T08:47:13;101153.97;;;21.02;47.95
49835;BME280;35729;52.090;13.162;2022-07-29T08:49:44;101143.63;;;21.12;47.78
49835;BME280;35729;52.090;13.162;2022-07-29T08:52:14;101146.50;;;21.23;47.26
49835;BME280;35729;52.090;13.162;2022-07-29T08:54:44;101146.50;;;21.38;46.82
49835;BME280;35729;52.090;13.162;2022-07-29T08:57:14;101151.09;;;21.50;46.30
49835;BME280;35729;52.090;13.162;2022-07-29T08:59:45;101140.66;;;21.61;46.32
49835;BME280;35729;52.090;13.162;2022-07-29T09:02:19;101133.56;;;21.75;45.72
49835;BME280;35729;52.090;13.162;2022-07-29T09:04:50;101136.41;;;21.86;46.10
49835;BME280;35729;52.090;13.162;2022-07-29T09:07:19;101129.56;;;21.96;45.61
49835;BME280;35729;52.090;13.162;2022-07-29T09:09:47;101128.97;;;22.06;45.59
49835;BME280;35729;52.090;13.162;2022-07-29T09:12:16;101121.97;;;22.18;44.98
49835;BME280;35729;52.090;13.162;2022-07-29T09:14:45;101124.78;;;22.29;45.04
49835;BME280;35729;52.090;13.162;2022-07-29T09:17:14;101122.53;;;22.37;44.65
49835;BME280;35729;52.090;13.162;2022-07-29T09:19:45;101116.44;;;22.48;44.30
49835;BME280;35729;52.090;13.162;2022-07-29T09:22:28;101102.28;;;22.60;43.84
49835;BME280;35729;52.090;13.162;2022-07-29T09:24:58;101105.97;;;22.72;43.79
49835;BME280;35729;52.090;13.162;2022-07-29T09:27:33;101098.91;;;22.84;43.29
49835;BME280;35729;52.090;13.162;2022-07-29T09:30:10;101096.34;;;22.96;42.64
49835;BME280;35729;52.090;13.162;2022-07-29T09:32:55;101084.38;;;23.01;42.70
49835;BME280;35729;52.090;13.162;2022-07-29T09:35:26;101092.22;;;23.17;42.19
49835;BME280;35729;52.090;13.162;2022-07-29T09:37:57;101097.81;;;23.27;42.38
49835;BME280;35729;52.090;13.162;2022-07-29T09:40:27;101096.19;;;23.37;42.17
49835;BME280;35729;52.090;13.162;2022-07-29T09:42:56;101088.38;;;23.47;41.82
49835;BME280;35729;52.090;13.162;2022-07-29T09:45:29;101088.47;;;23.58;41.51
49835;BME280;35729;52.090;13.162;2022-07-29T09:47:58;101083.41;;;23.67;41.39
49835;BME280;35729;52.090;13.162;2022-07-29T09:50:36;101080.91;;;23.77;41.63
49835;BME280;35729;52.090;13.162;2022-07-29T09:53:08;101090.00;;;23.87;40.93
49835;BME280;35729;52.090;13.162;2022-07-29T09:55:47;101082.94;;;23.99;40.82
49835;BME280;35729;52.090;13.162;2022-07-29T09:58:17;101086.66;;;24.09;40.48
49835;BME280;35729;52.090;13.162;2022-07-29T10:00:47;101087.56;;;24.21;40.31
49835;BME280;35729;52.090;13.162;2022-07-29T10:03:16;101091.16;;;24.33;39.86
49835;BME280;35729;52.090;13.162;2022-07-29T10:06:04;101094.63;;;24.46;40.03
49835;BME280;35729;52.090;13.162;2022-07-29T10:08:36;101085.66;;;24.59;39.59
49835;BME280;35729;52.090;13.162;2022-07-29T10:11:13;101086.34;;;24.74;39.57
49835;BME280;35729;52.090;13.162;2022-07-29T10:13:43;101094.31;;;24.86;39.28
49835;BME280;35729;52.090;13.162;2022-07-29T10:16:13;101084.44;;;24.98;38.74
49835;BME280;35729;52.090;13.162;2022-07-29T10:18:44;101092.63;;;25.08;38.46
49835;BME280;35729;52.090;13.162;2022-07-29T10:21:12;101088.63;;;25.14;38.09
49835;BME280;35729;52.090;13.162;2022-07-29T10:23:44;101087.28;;;25.19;37.72
49835;BME280;35729;52.090;13.162;2022-07-29T10:26:13;101086.81;;;25.26;38.04
49835;BME280;35729;52.090;13.162;2022-07-29T10:28:42;101089.97;;;25.31;37.57
49835;BME280;35729;52.090;13.162;2022-07-29T10:31:18;101079.84;;;25.34;37.65
49835;BME280;35729;52.090;13.162;2022-07-29T10:33:58;101083.38;;;25.35;37.85
49835;BME280;35729;52.090;13.162;2022-07-29T10:36:39;101078.88;;;25.35;37.67
49835;BME280;35729;52.090;13.162;2022-07-29T10:39:20;101072.59;;;25.36;37.48
49835;BME280;35729;52.090;13.162;2022-07-29T10:42:02;101080.50;;;25.38;37.92
49835;BME280;35729;52.090;13.162;2022-07-29T10:44:33;101067.09;;;25.38;37.89
49835;BME280;35729;52.090;13.162;2022-07-29T10:47:02;101071.47;;;25.39;37.93
49835;BME280;35729;52.090;13.162;2022-07-29T10:49:30;101060.59;;;25.41;37.59
49835;BME280;35729;52.090;13.162;2022-07-29T10:52:01;101054.13;;;25.43;37.84
49835;BME280;35729;52.090;13.162;2022-07-29T10:54:44;101058.28;;;25.47;38.03
49835;BME280;35729;52.090;13.162;2022-07-29T10:57:22;101059.16;;;25.48;37.43
49835;BME280;35729;52.090;13.162;2022-07-29T11:02:57;101059.16;;;25.59;37.51
49835;BME280;35729;52.090;13.162;2022-07-29T11:05:26;101057.03;;;25.63;37.21
49835;BME280;35729;52.090;13.162;2022-07-29T11:08:21;101043.59;;;25.63;36.57
49835;BME280;35729;52.090;13.162;2022-07-29T11:10:53;101050.94;;;25.72;36.62
49835;BME280;35729;52.090;13.162;2022-07-29T11:13:46;101042.25;;;25.80;36.42
49835;BME280;35729;52.090;13.162;2022-07-29T11:16:16;101043.47;;;25.87;36.62
49835;BME280;35729;52.090;13.162;2022-07-29T11:21:49;101046.69;;;26.02;35.88
49835;BME280;35729;52.090;13.162;2022-07-29T11:24:20;101042.41;;;26.11;35.82
49835;BME280;35729;52.090;13.162;2022-07-29T11:27:09;101040.94;;;26.18;35.98
49835;BME280;35729;52.090;13.162;2022-07-29T11:29:40;101040.16;;;26.27;35.96
49835;BME280;35729;52.090;13.162;2022-07-29T11:32:10;101030.34;;;26.38;35.62
49835;BME280;35729;52.090;13.162;2022-07-29T11:34:40;101039.22;;;26.49;35.14
49835;BME280;35729;52.090;13.162;2022-07-29T11:37:23;101033.63;;;26.62;34.85
49835;BME280;35729;52.090;13.162;2022-07-29T11:40:15;101033.47;;;26.75;34.71
49835;BME280;35729;52.090;13.162;2022-07-29T11:42:45;101026.88;;;26.89;34.44
49835;BME280;35729;52.090;13.162;2022-07-29T11:45:16;101025.56;;;27.05;34.26
49835;BME280;35729;52.090;13.162;2022-07-29T11:47:50;101027.06;;;27.19;33.27
49835;BME280;35729;52.090;13.162;2022-07-29T11:50:34;101026.41;;;27.36;32.41
49835;BME280;35729;52.090;13.162;2022-07-29T11:53:11;101020.25;;;27.55;32.52
49835;BME280;35729;52.090;13.162;2022-07-29T11:55:41;101013.09;;;27.75;32.74
49835;BME280;35729;52.090;13.162;2022-07-29T11:58:10;101023.72;;;27.96;31.93
49835;BME280;35729;52.090;13.162;2022-07-29T12:00:40;101013.97;;;28.15;31.67
49835;BME280;35729;52.090;13.162;2022-07-29T12:03:10;101021.50;;;28.31;31.26
49835;BME280;35729;52.090;13.162;2022-07-29T12:08:17;101010.53;;;28.62;29.96
49835;BME280;35729;52.090;13.162;2022-07-29T12:10:53;101006.38;;;28.77;30.36
49835;BME280;35729;52.090;13.162;2022-07-29T12:13:21;101003.53;;;28.89;30.13
49835;BME280;35729;52.090;13.162;2022-07-29T12:15:54;101003.78;;;29.05;30.13
49835;BME280;35729;52.090;13.162;2022-07-29T12:18:24;100995.41;;;29.26;29.50
49835;BME280;35729;52.090;13.162;2022-07-29T12:20:57;101010.47;;;29.39;28.79
49835;BME280;35729;52.090;13.162;2022-07-29T12:23:31;100996.19;;;29.47;28.65
49835;BME280;35729;52.090;13.162;2022-07-29T12:26:03;100990.19;;;29.53;28.75
49835;BME280;35729;52.090;13.162;2022-07-29T12:28:36;100991.28;;;29.60;28.89
49835;BME280;35729;52.090;13.162;2022-07-29T12:31:05;100989.53;;;29.69;28.76
49835;BME280;35729;52.090;13.162;2022-07-29T12:33:34;100987.44;;;29.81;28.54
49835;BME280;35729;52.090;13.162;2022-07-29T12:36:03;100989.09;;;29.92;28.49
49835;BME280;35729;52.090;13.162;2022-07-29T12:38:34;100984.31;;;30.03;27.85
49835;BME280;35729;52.090;13.162;2022-07-29T12:41:04;100985.44;;;30.19;28.08
49835;BME280;35729;52.090;13.162;2022-07-29T12:43:32;100988.75;;;30.31;27.56
49835;BME280;35729;52.090;13.162;2022-07-29T12:46:12;100981.94;;;30.45;26.96
49835;BME280;35729;52.090;13.162;2022-07-29T12:48:42;100977.66;;;30.60;27.31
49835;BME280;35729;52.090;13.162;2022-07-29T12:51:11;100983.88;;;30.79;27.09
49835;BME280;35729;52.090;13.162;2022-07-29T12:54:02;100980.44;;;31.03;26.83
49835;BME280;35729;52.090;13.162;2022-07-29T12:56:31;100973.94;;;31.22;26.42
49835;BME280;35729;52.090;13.162;2022-07-29T12:58:59;100974.16;;;31.37;26.17
49835;BME280;35729;52.090;13.162;2022-07-29T13:01:38;100970.97;;;31.50;26.13
49835;BME280;35729;52.090;13.162;2022-07-29T13:04:07;100972.88;;;31.58;25.66
49835;BME280;35729;52.090;13.162;2022-07-29T13:06:37;100959.19;;;31.67;25.76
49835;BME280;35729;52.090;13.162;2022-07-29T13:09:12;100977.50;;;31.82;25.62